sensor_id;sensor_type;location;lat;lon;timestamp;P1;durP1;ratioP1;P2;durP2;ratioP2
11767;SDS011;5941;57.652;12.514;2022-09-09T00:00:22;1.23;;;1.00;;
11767;SDS011;5941;57.652;12.514;2022-09-09T00:03:10;1.00;;;0.90;;
11767;SDS011;5941;57.652;12.514;2022-09-09T00:08:37;1.23;;;1.13;;
11767;SDS011;5941;57.652;12.514;2022-09-09T00:11:07;1.23;;;0.80;;
11767;SDS011;5941;57.652;12.514;2022-09-09T00:13:37;2.03;;;0.87;;
11767;SDS011;5941;57.652;12.514;2022-09-09T00:18:51;0.77;;;0.77;;
11767;SDS011;5941;57.652;12.514;2022-09-09T00:21:18;1.07;;;0.87;;
11767;SDS011;5941;57.652;12.514;2022-09-09T00:23:47;1.03;;;0.90;;
11767;SDS011;5941;57.652;12.514;2022-09-09T00:31:38;1.50;;;1.00;;
11767;SDS011;5941;57.652;12.514;2022-09-09T00:34:15;1.53;;;0.93;;
11767;SDS011;5941;57.652;12.514;2022-09-09T00:36:42;0.90;;;0.90;;
11767;SDS011;5941;57.652;12.514;2022-09-09T00:39:13;1.00;;;0.90;;
11767;SDS011;5941;57.652;12.514;2022-09-09T00:51:41;1.77;;;1.10;;
11767;SDS011;5941;57.652;12.514;2022-09-09T00:56:37;2.13;;;1.00;;
11767;SDS011;5941;57.652;12.514;2022-09-09T01:01:35;2.70;;;1.20;;
11767;SDS011;5941;57.652;12.514;2022-09-09T01:04:03;1.10;;;1.00;;
11767;SDS011;5941;57.652;12.514;2022-09-09T01:14:22;1.13;;;1.03;;
11767;SDS011;5941;57.652;12.514;2022-09-09T01:16:56;1.83;;;0.90;;
11767;SDS011;5941;57.652;12.514;2022-09-09T01:19:27;1.63;;;0.93;;
11767;SDS011;5941;57.652;12.514;2022-09-09T01:22:43;1.77;;;1.10;;
11767;SDS011;5941;57.652;12.514;2022-09-09T01:27:18;1.53;;;1.00;;
11767;SDS011;5941;57.652;12.514;2022-09-09T01:29:45;3.07;;;0.90;;
11767;SDS011;5941;57.652;12.514;2022-09-09T01:34:56;2.27;;;1.03;;
11767;SDS011;5941;57.652;12.514;2022-09-09T01:37:22;1.13;;;1.00;;
11767;SDS011;5941;57.652;12.514;2022-09-09T01:39:49;1.83;;;0.93;;
11767;SDS011;5941;57.652;12.514;2022-09-09T01:42:15;2.00;;;1.03;;
11767;SDS011;5941;57.652;12.514;2022-09-09T01:44:41;1.00;;;1.00;;
11767;SDS011;5941;57.652;12.514;2022-09-09T01:47:07;1.53;;;1.00;;
11767;SDS011;5941;57.652;12.514;2022-09-09T01:49:34;2.23;;;1.10;;
11767;SDS011;5941;57.652;12.514;2022-09-09T01:52:00;1.50;;;1.20;;
11767;SDS011;5941;57.652;12.514;2022-09-09T01:54:26;0.93;;;0.93;;
11767;SDS011;5941;57.652;12.514;2022-09-09T01:57:11;1.20;;;1.10;;
11767;SDS011;5941;57.652;12.514;2022-09-09T02:02:30;2.50;;;1.00;;
11767;SDS011;5941;57.652;12.514;2022-09-09T02:07:42;1.40;;;1.27;;
11767;SDS011;5941;57.652;12.514;2022-09-09T02:12:36;2.23;;;1.40;;
11767;SDS011;5941;57.652;12.514;2022-09-09T02:15:05;4.20;;;1.20;;
11767;SDS011;5941;57.652;12.514;2022-09-09T02:17:34;1.13;;;0.97;;
11767;SDS011;5941;57.652;12.514;2022-09-09T02:20:07;1.23;;;1.13;;
11767;SDS011;5941;57.652;12.514;2022-09-09T02:22:34;1.13;;;1.00;;
11767;SDS011;5941;57.652;12.514;2022-09-09T02:25:04;1.83;;;1.00;;
11767;SDS011;5941;57.652;12.514;2022-09-09T02:27:32;1.83;;;1.00;;
11767;SDS011;5941;57.652;12.514;2022-09-09T02:29:58;1.10;;;1.00;;
11767;SDS011;5941;57.652;12.514;2022-09-09T02:32:27;1.77;;;1.00;;
11767;SDS011;5941;57.652;12.514;2022-09-09T02:34:57;2.60;;;1.37;;
11767;SDS011;5941;57.652;12.514;2022-09-09T02:37:24;1.67;;;1.07;;
11767;SDS011;5941;57.652;12.514;2022-09-09T02:39:53;4.40;;;1.00;;
11767;SDS011;5941;57.652;12.514;2022-09-09T02:42:19;2.27;;;1.20;;
11767;SDS011;5941;57.652;12.514;2022-09-09T02:44:45;3.40;;;1.07;;
11767;SDS011;5941;57.652;12.514;2022-09-09T02:47:24;1.13;;;0.90;;
11767;SDS011;5941;57.652;12.514;2022-09-09T02:54:55;2.13;;;1.00;;
11767;SDS011;5941;57.652;12.514;2022-09-09T02:57:25;2.63;;;1.10;;
11767;SDS011;5941;57.652;12.514;2022-09-09T02:59:52;1.27;;;0.97;;
11767;SDS011;5941;57.652;12.514;2022-09-09T03:02:19;1.20;;;1.00;;
11767;SDS011;5941;57.652;12.514;2022-09-09T03:04:45;2.30;;;1.17;;
11767;SDS011;5941;57.652;12.514;2022-09-09T03:07:15;3.30;;;1.10;;
11767;SDS011;5941;57.652;12.514;2022-09-09T03:09:42;1.13;;;1.03;;
11767;SDS011;5941;57.652;12.514;2022-09-09T03:12:08;1.20;;;1.10;;
11767;SDS011;5941;57.652;12.514;2022-09-09T03:14:36;1.10;;;1.00;;
11767;SDS011;5941;57.652;12.514;2022-09-09T03:17:03;2.40;;;1.20;;
11767;SDS011;5941;57.652;12.514;2022-09-09T03:19:29;2.90;;;1.20;;
11767;SDS011;5941;57.652;12.514;2022-09-09T03:21:55;2.33;;;1.57;;
11767;SDS011;5941;57.652;12.514;2022-09-09T03:24:21;1.67;;;1.00;;
11767;SDS011;5941;57.652;12.514;2022-09-09T03:26:47;1.40;;;1.20;;
11767;SDS011;5941;57.652;12.514;2022-09-09T03:29:18;1.37;;;1.07;;
11767;SDS011;5941;57.652;12.514;2022-09-09T03:31:44;1.60;;;1.10;;
11767;SDS011;5941;57.652;12.514;2022-09-09T03:34:10;5.23;;;1.10;;
11767;SDS011;5941;57.652;12.514;2022-09-09T03:36:36;1.93;;;1.10;;
11767;SDS011;5941;57.652;12.514;2022-09-09T03:39:02;1.83;;;1.10;;
11767;SDS011;5941;57.652;12.514;2022-09-09T03:41:29;2.13;;;1.20;;
11767;SDS011;5941;57.652;12.514;2022-09-09T03:43:55;3.63;;;1.20;;
11767;SDS011;5941;57.652;12.514;2022-09-09T03:46:21;1.83;;;1.47;;
11767;SDS011;5941;57.652;12.514;2022-09-09T03:48:48;3.10;;;1.17;;
11767;SDS011;5941;57.652;12.514;2022-09-09T03:51:14;2.53;;;1.20;;
11767;SDS011;5941;57.652;12.514;2022-09-09T03:53:41;1.53;;;1.10;;
11767;SDS011;5941;57.652;12.514;2022-09-09T03:56:08;1.83;;;1.20;;
11767;SDS011;5941;57.652;12.514;2022-09-09T03:58:34;1.13;;;1.00;;
11767;SDS011;5941;57.652;12.514;2022-09-09T04:01:04;2.27;;;1.27;;
11767;SDS011;5941;57.652;12.514;2022-09-09T04:03:30;3.07;;;1.13;;
11767;SDS011;5941;57.652;12.514;2022-09-09T04:05:58;3.27;;;1.20;;
11767;SDS011;5941;57.652;12.514;2022-09-09T04:08:24;1.97;;;1.00;;
11767;SDS011;5941;57.652;12.514;2022-09-09T04:10:51;1.37;;;1.13;;
11767;SDS011;5941;57.652;12.514;2022-09-09T04:13:17;2.73;;;1.10;;
11767;SDS011;5941;57.652;12.514;2022-09-09T04:15:44;1.53;;;1.20;;
11767;SDS011;5941;57.652;12.514;2022-09-09T04:18:15;1.90;;;1.27;;
11767;SDS011;5941;57.652;12.514;2022-09-09T04:20:41;2.53;;;1.40;;
11767;SDS011;5941;57.652;12.514;2022-09-09T04:23:08;1.73;;;1.20;;
11767;SDS011;5941;57.652;12.514;2022-09-09T04:25:34;1.40;;;1.30;;
11767;SDS011;5941;57.652;12.514;2022-09-09T04:28:00;3.10;;;1.23;;
11767;SDS011;5941;57.652;12.514;2022-09-09T04:30:27;3.23;;;1.10;;
11767;SDS011;5941;57.652;12.514;2022-09-09T04:32:53;3.17;;;1.40;;
11767;SDS011;5941;57.652;12.514;2022-09-09T04:35:19;3.47;;;1.73;;
11767;SDS011;5941;57.652;12.514;2022-09-09T04:37:45;2.30;;;1.27;;
11767;SDS011;5941;57.652;12.514;2022-09-09T04:40:11;1.47;;;1.00;;
11767;SDS011;5941;57.652;12.514;2022-09-09T04:42:37;1.23;;;1.07;;
11767;SDS011;5941;57.652;12.514;2022-09-09T04:45:04;2.47;;;1.10;;
11767;SDS011;5941;57.652;12.514;2022-09-09T04:47:31;2.30;;;1.10;;
11767;SDS011;5941;57.652;12.514;2022-09-09T04:49:57;1.30;;;1.20;;
11767;SDS011;5941;57.652;12.514;2022-09-09T04:52:23;1.30;;;1.13;;
11767;SDS011;5941;57.652;12.514;2022-09-09T04:54:49;2.97;;;1.43;;
11767;SDS011;5941;57.652;12.514;2022-09-09T04:57:15;2.93;;;1.40;;
11767;SDS011;5941;57.652;12.514;2022-09-09T04:59:43;2.60;;;1.40;;
11767;SDS011;5941;57.652;12.514;2022-09-09T05:02:10;3.77;;;1.50;;
11767;SDS011;5941;57.652;12.514;2022-09-09T05:04:36;1.43;;;1.33;;
11767;SDS011;5941;57.652;12.514;2022-09-09T05:07:02;1.33;;;1.17;;
11767;SDS011;5941;57.652;12.514;2022-09-09T05:09:28;1.87;;;1.10;;
11767;SDS011;5941;57.652;12.514;2022-09-09T05:11:55;2.93;;;1.40;;
11767;SDS011;5941;57.652;12.514;2022-09-09T05:14:22;1.73;;;1.27;;
11767;SDS011;5941;57.652;12.514;2022-09-09T05:16:48;1.70;;;1.20;;
11767;SDS011;5941;57.652;12.514;2022-09-09T05:19:15;2.10;;;1.33;;
11767;SDS011;5941;57.652;12.514;2022-09-09T05:21:44;2.90;;;1.30;;
11767;SDS011;5941;57.652;12.514;2022-09-09T05:24:10;1.90;;;1.20;;
11767;SDS011;5941;57.652;12.514;2022-09-09T05:26:36;1.57;;;1.27;;
11767;SDS011;5941;57.652;12.514;2022-09-09T05:29:02;2.60;;;1.20;;
11767;SDS011;5941;57.652;12.514;2022-09-09T05:31:29;5.40;;;1.40;;
11767;SDS011;5941;57.652;12.514;2022-09-09T05:33:55;2.83;;;1.10;;
11767;SDS011;5941;57.652;12.514;2022-09-09T05:36:21;1.07;;;1.00;;
11767;SDS011;5941;57.652;12.514;2022-09-09T05:38:48;3.70;;;1.40;;
11767;SDS011;5941;57.652;12.514;2022-09-09T05:41:15;2.73;;;1.37;;
11767;SDS011;5941;57.652;12.514;2022-09-09T05:43:42;3.77;;;1.10;;
11767;SDS011;5941;57.652;12.514;2022-09-09T05:46:17;3.73;;;1.30;;
11767;SDS011;5941;57.652;12.514;2022-09-09T05:48:44;1.33;;;1.10;;
11767;SDS011;5941;57.652;12.514;2022-09-09T05:51:12;2.67;;;1.33;;
11767;SDS011;5941;57.652;12.514;2022-09-09T05:53:40;2.47;;;1.40;;
11767;SDS011;5941;57.652;12.514;2022-09-09T05:56:11;2.00;;;1.17;;
11767;SDS011;5941;57.652;12.514;2022-09-09T05:58:37;1.37;;;1.17;;
11767;SDS011;5941;57.652;12.514;2022-09-09T06:01:07;4.60;;;1.20;;
11767;SDS011;5941;57.652;12.514;2022-09-09T06:03:35;3.23;;;1.30;;
11767;SDS011;5941;57.652;12.514;2022-09-09T06:06:02;4.27;;;1.50;;
11767;SDS011;5941;57.652;12.514;2022-09-09T06:08:32;2.70;;;1.33;;
11767;SDS011;5941;57.652;12.514;2022-09-09T06:11:02;2.37;;;1.17;;
11767;SDS011;5941;57.652;12.514;2022-09-09T06:13:28;2.53;;;1.40;;
11767;SDS011;5941;57.652;12.514;2022-09-09T06:15:54;1.60;;;1.40;;
11767;SDS011;5941;57.652;12.514;2022-09-09T06:18:20;2.50;;;1.30;;
11767;SDS011;5941;57.652;12.514;2022-09-09T06:20:56;3.57;;;1.37;;
11767;SDS011;5941;57.652;12.514;2022-09-09T06:23:22;5.77;;;1.30;;
11767;SDS011;5941;57.652;12.514;2022-09-09T06:25:48;1.90;;;1.40;;
11767;SDS011;5941;57.652;12.514;2022-09-09T06:28:15;1.70;;;1.20;;
11767;SDS011;5941;57.652;12.514;2022-09-09T06:30:42;2.23;;;1.30;;
11767;SDS011;5941;57.652;12.514;2022-09-09T06:33:08;5.30;;;1.77;;
11767;SDS011;5941;57.652;12.514;2022-09-09T06:35:34;1.90;;;1.27;;
11767;SDS011;5941;57.652;12.514;2022-09-09T06:38:00;1.40;;;1.30;;
11767;SDS011;5941;57.652;12.514;2022-09-09T06:40:26;2.23;;;1.20;;
11767;SDS011;5941;57.652;12.514;2022-09-09T06:42:52;2.83;;;1.40;;
11767;SDS011;5941;57.652;12.514;2022-09-09T06:45:18;3.73;;;1.50;;
11767;SDS011;5941;57.652;12.514;2022-09-09T06:47:44;2.67;;;1.70;;
11767;SDS011;5941;57.652;12.514;2022-09-09T06:50:10;1.90;;;1.33;;
11767;SDS011;5941;57.652;12.514;2022-09-09T06:52:36;3.40;;;1.40;;
11767;SDS011;5941;57.652;12.514;2022-09-09T06:55:03;2.43;;;1.40;;
11767;SDS011;5941;57.652;12.514;2022-09-09T06:57:29;2.07;;;1.60;;
11767;SDS011;5941;57.652;12.514;2022-09-09T06:59:55;2.00;;;1.60;;
11767;SDS011;5941;57.652;12.514;2022-09-09T07:02:21;1.40;;;1.20;;
11767;SDS011;5941;57.652;12.514;2022-09-09T07:04:47;2.60;;;1.40;;
11767;SDS011;5941;57.652;12.514;2022-09-09T07:07:15;2.67;;;1.33;;
11767;SDS011;5941;57.652;12.514;2022-09-09T07:09:42;1.87;;;1.40;;
11767;SDS011;5941;57.652;12.514;2022-09-09T07:12:09;3.10;;;1.60;;
11767;SDS011;5941;57.652;12.514;2022-09-09T07:14:35;3.00;;;1.30;;
11767;SDS011;5941;57.652;12.514;2022-09-09T07:17:02;2.17;;;1.50;;
11767;SDS011;5941;57.652;12.514;2022-09-09T07:19:28;2.50;;;1.30;;
11767;SDS011;5941;57.652;12.514;2022-09-09T07:21:54;4.00;;;1.50;;
11767;SDS011;5941;57.652;12.514;2022-09-09T07:24:20;2.60;;;1.60;;
11767;SDS011;5941;57.652;12.514;2022-09-09T07:26:46;2.80;;;1.30;;
11767;SDS011;5941;57.652;12.514;2022-09-09T07:29:12;4.50;;;1.50;;
11767;SDS011;5941;57.652;12.514;2022-09-09T07:31:39;6.60;;;1.60;;
11767;SDS011;5941;57.652;12.514;2022-09-09T07:34:05;2.10;;;1.20;;
11767;SDS011;5941;57.652;12.514;2022-09-09T07:36:32;3.10;;;1.50;;
11767;SDS011;5941;57.652;12.514;2022-09-09T07:38:59;1.63;;;1.30;;
11767;SDS011;5941;57.652;12.514;2022-09-09T07:41:28;2.17;;;1.60;;
11767;SDS011;5941;57.652;12.514;2022-09-09T07:43:55;1.47;;;1.30;;
11767;SDS011;5941;57.652;12.514;2022-09-09T07:46:22;1.50;;;1.40;;
11767;SDS011;5941;57.652;12.514;2022-09-09T07:48:52;1.77;;;1.40;;
11767;SDS011;5941;57.652;12.514;2022-09-09T07:51:21;2.43;;;1.50;;
11767;SDS011;5941;57.652;12.514;2022-09-09T07:53:47;2.43;;;1.50;;
11767;SDS011;5941;57.652;12.514;2022-09-09T07:56:14;4.20;;;1.60;;
11767;SDS011;5941;57.652;12.514;2022-09-09T07:58:47;2.70;;;1.30;;
11767;SDS011;5941;57.652;12.514;2022-09-09T08:01:18;2.27;;;1.43;;
11767;SDS011;5941;57.652;12.514;2022-09-09T08:03:44;2.83;;;1.50;;
11767;SDS011;5941;57.652;12.514;2022-09-09T08:06:11;2.27;;;1.50;;
11767;SDS011;5941;57.652;12.514;2022-09-09T08:08:38;2.93;;;1.53;;
11767;SDS011;5941;57.652;12.514;2022-09-09T08:11:10;4.87;;;1.50;;
11767;SDS011;5941;57.652;12.514;2022-09-09T08:13:36;2.17;;;1.53;;
11767;SDS011;5941;57.652;12.514;2022-09-09T08:16:13;4.07;;;1.50;;
11767;SDS011;5941;57.652;12.514;2022-09-09T08:18:39;2.77;;;1.50;;
11767;SDS011;5941;57.652;12.514;2022-09-09T08:21:14;2.87;;;1.40;;
11767;SDS011;5941;57.652;12.514;2022-09-09T08:23:42;5.17;;;1.33;;
11767;SDS011;5941;57.652;12.514;2022-09-09T08:26:11;2.70;;;1.60;;
11767;SDS011;5941;57.652;12.514;2022-09-09T08:28:39;2.27;;;1.43;;
11767;SDS011;5941;57.652;12.514;2022-09-09T08:31:12;2.40;;;1.60;;
11767;SDS011;5941;57.652;12.514;2022-09-09T08:33:39;1.63;;;1.40;;
11767;SDS011;5941;57.652;12.514;2022-09-09T08:36:06;2.00;;;1.43;;
11767;SDS011;5941;57.652;12.514;2022-09-09T08:38:34;4.70;;;1.60;;
11767;SDS011;5941;57.652;12.514;2022-09-09T08:43:45;2.43;;;1.50;;
11767;SDS011;5941;57.652;12.514;2022-09-09T08:46:21;2.87;;;1.60;;
11767;SDS011;5941;57.652;12.514;2022-09-09T08:48:52;1.50;;;1.40;;
11767;SDS011;5941;57.652;12.514;2022-09-09T08:51:21;4.87;;;1.60;;
11767;SDS011;5941;57.652;12.514;2022-09-09T08:53:49;2.10;;;1.43;;
11767;SDS011;5941;57.652;12.514;2022-09-09T08:56:17;3.73;;;1.70;;
11767;SDS011;5941;57.652;12.514;2022-09-09T08:58:45;2.90;;;1.60;;
11767;SDS011;5941;57.652;12.514;2022-09-09T09:09:02;3.13;;;1.70;;
11767;SDS011;5941;57.652;12.514;2022-09-09T09:11:35;3.97;;;1.73;;
11767;SDS011;5941;57.652;12.514;2022-09-09T09:14:03;2.90;;;1.50;;
11767;SDS011;5941;57.652;12.514;2022-09-09T09:16:34;3.80;;;1.80;;
11767;SDS011;5941;57.652;12.514;2022-09-09T09:19:04;1.63;;;1.40;;
11767;SDS011;5941;57.652;12.514;2022-09-09T09:21:43;2.30;;;1.73;;
11767;SDS011;5941;57.652;12.514;2022-09-09T09:24:16;1.70;;;1.30;;
11767;SDS011;5941;57.652;12.514;2022-09-09T09:26:43;3.43;;;1.63;;
11767;SDS011;5941;57.652;12.514;2022-09-09T09:29:11;2.17;;;1.40;;
11767;SDS011;5941;57.652;12.514;2022-09-09T09:31:37;2.03;;;1.60;;
11767;SDS011;5941;57.652;12.514;2022-09-09T09:34:03;2.47;;;1.70;;
11767;SDS011;5941;57.652;12.514;2022-09-09T09:36:33;1.50;;;1.40;;
11767;SDS011;5941;57.652;12.514;2022-09-09T09:39:01;2.70;;;1.70;;
11767;SDS011;5941;57.652;12.514;2022-09-09T09:41:30;2.80;;;1.40;;
11767;SDS011;5941;57.652;12.514;2022-09-09T09:43:56;4.07;;;1.70;;
11767;SDS011;5941;57.652;12.514;2022-09-09T09:46:23;2.70;;;1.77;;
11767;SDS011;5941;57.652;12.514;2022-09-09T09:49:00;3.17;;;1.70;;
11767;SDS011;5941;57.652;12.514;2022-09-09T09:51:26;3.50;;;1.70;;
11767;SDS011;5941;57.652;12.514;2022-09-09T09:53:53;3.90;;;1.50;;
11767;SDS011;5941;57.652;12.514;2022-09-09T09:56:27;2.00;;;1.60;;
11767;SDS011;5941;57.652;12.514;2022-09-09T09:58:54;2.67;;;1.60;;
11767;SDS011;5941;57.652;12.514;2022-09-09T10:01:22;3.77;;;1.70;;
11767;SDS011;5941;57.652;12.514;2022-09-09T10:03:53;2.90;;;1.80;;
11767;SDS011;5941;57.652;12.514;2022-09-09T10:06:37;2.67;;;1.80;;
11767;SDS011;5941;57.652;12.514;2022-09-09T10:09:18;3.63;;;2.00;;
11767;SDS011;5941;57.652;12.514;2022-09-09T10:11:48;3.80;;;1.90;;
11767;SDS011;5941;57.652;12.514;2022-09-09T10:14:20;3.53;;;1.60;;
11767;SDS011;5941;57.652;12.514;2022-09-09T10:19:31;3.77;;;1.60;;
11767;SDS011;5941;57.652;12.514;2022-09-09T10:27:20;3.13;;;2.00;;
11767;SDS011;5941;57.652;12.514;2022-09-09T10:42:50;3.73;;;2.00;;
11767;SDS011;5941;57.652;12.514;2022-09-09T10:45:18;2.90;;;2.03;;
11767;SDS011;5941;57.652;12.514;2022-09-09T10:50:19;2.97;;;2.00;;
11767;SDS011;5941;57.652;12.514;2022-09-09T10:52:51;2.80;;;1.83;;
11767;SDS011;5941;57.652;12.514;2022-09-09T10:55:39;3.93;;;1.80;;
11767;SDS011;5941;57.652;12.514;2022-09-09T10:58:09;2.70;;;1.90;;
11767;SDS011;5941;57.652;12.514;2022-09-09T11:00:40;4.40;;;1.93;;
11767;SDS011;5941;57.652;12.514;2022-09-09T11:03:18;3.30;;;1.93;;
11767;SDS011;5941;57.652;12.514;2022-09-09T11:05:46;4.37;;;2.17;;
11767;SDS011;5941;57.652;12.514;2022-09-09T11:10:52;3.03;;;2.00;;
11767;SDS011;5941;57.652;12.514;2022-09-09T11:13:25;3.80;;;2.33;;
11767;SDS011;5941;57.652;12.514;2022-09-09T11:15:54;3.83;;;2.13;;
11767;SDS011;5941;57.652;12.514;2022-09-09T11:18:25;3.67;;;1.87;;
11767;SDS011;5941;57.652;12.514;2022-09-09T11:20:55;3.80;;;1.87;;
11767;SDS011;5941;57.652;12.514;2022-09-09T11:23:24;4.20;;;2.47;;
11767;SDS011;5941;57.652;12.514;2022-09-09T11:25:55;3.63;;;2.33;;
11767;SDS011;5941;57.652;12.514;2022-09-09T11:28:46;4.40;;;2.20;;
11767;SDS011;5941;57.652;12.514;2022-09-09T11:37:08;2.80;;;2.27;;
11767;SDS011;5941;57.652;12.514;2022-09-09T11:44:39;3.50;;;2.07;;
11767;SDS011;5941;57.652;12.514;2022-09-09T11:49:55;4.03;;;2.40;;
11767;SDS011;5941;57.652;12.514;2022-09-09T11:54:48;2.80;;;2.23;;
11767;SDS011;5941;57.652;12.514;2022-09-09T11:57:17;3.47;;;2.40;;
11767;SDS011;5941;57.652;12.514;2022-09-09T11:59:51;3.50;;;2.30;;
11767;SDS011;5941;57.652;12.514;2022-09-09T12:04:46;3.60;;;2.20;;
11767;SDS011;5941;57.652;12.514;2022-09-09T12:09:52;2.83;;;2.10;;
11767;SDS011;5941;57.652;12.514;2022-09-09T12:17:23;5.00;;;2.33;;
11767;SDS011;5941;57.652;12.514;2022-09-09T12:25:21;4.17;;;2.50;;
11767;SDS011;5941;57.652;12.514;2022-09-09T12:30:22;3.03;;;2.50;;
11767;SDS011;5941;57.652;12.514;2022-09-09T12:33:01;6.07;;;2.50;;
11767;SDS011;5941;57.652;12.514;2022-09-09T12:35:27;5.10;;;2.30;;
11767;SDS011;5941;57.652;12.514;2022-09-09T12:38:01;3.63;;;2.30;;
11767;SDS011;5941;57.652;12.514;2022-09-09T12:40:32;3.80;;;2.20;;
11767;SDS011;5941;57.652;12.514;2022-09-09T12:43:00;4.23;;;2.13;;
11767;SDS011;5941;57.652;12.514;2022-09-09T12:45:27;2.40;;;2.10;;
11767;SDS011;5941;57.652;12.514;2022-09-09T12:48:08;5.53;;;2.57;;
11767;SDS011;5941;57.652;12.514;2022-09-09T12:50:43;6.27;;;2.23;;
11767;SDS011;5941;57.652;12.514;2022-09-09T12:53:13;3.17;;;2.40;;
11767;SDS011;5941;57.652;12.514;2022-09-09T12:55:48;4.13;;;2.20;;
11767;SDS011;5941;57.652;12.514;2022-09-09T12:58:15;6.00;;;2.57;;
11767;SDS011;5941;57.652;12.514;2022-09-09T13:00:48;3.73;;;2.10;;
11767;SDS011;5941;57.652;12.514;2022-09-09T13:03:19;5.37;;;2.20;;
11767;SDS011;5941;57.652;12.514;2022-09-09T13:05:46;4.13;;;2.20;;
11767;SDS011;5941;57.652;12.514;2022-09-09T13:08:13;4.20;;;2.20;;
11767;SDS011;5941;57.652;12.514;2022-09-09T13:10:40;2.37;;;2.13;;
11767;SDS011;5941;57.652;12.514;2022-09-09T13:13:16;4.43;;;2.40;;
11767;SDS011;5941;57.652;12.514;2022-09-09T13:15:51;3.27;;;2.17;;
11767;SDS011;5941;57.652;12.514;2022-09-09T13:18:18;2.97;;;2.20;;
11767;SDS011;5941;57.652;12.514;2022-09-09T13:20:47;3.27;;;2.30;;
11767;SDS011;5941;57.652;12.514;2022-09-09T13:23:13;3.33;;;2.33;;
11767;SDS011;5941;57.652;12.514;2022-09-09T13:25:40;3.40;;;2.27;;
11767;SDS011;5941;57.652;12.514;2022-09-09T13:28:18;3.93;;;2.47;;
11767;SDS011;5941;57.652;12.514;2022-09-09T13:30:54;4.40;;;2.27;;
11767;SDS011;5941;57.652;12.514;2022-09-09T13:33:24;2.33;;;2.13;;
11767;SDS011;5941;57.652;12.514;2022-09-09T13:38:20;3.80;;;2.47;;
11767;SDS011;5941;57.652;12.514;2022-09-09T13:41:03;4.20;;;2.67;;
11767;SDS011;5941;57.652;12.514;2022-09-09T13:43:30;2.60;;;2.40;;
11767;SDS011;5941;57.652;12.514;2022-09-09T13:45:58;2.97;;;2.10;;
11767;SDS011;5941;57.652;12.514;2022-09-09T13:48:25;2.93;;;2.23;;
11767;SDS011;5941;57.652;12.514;2022-09-09T13:51:32;3.70;;;1.93;;
11767;SDS011;5941;57.652;12.514;2022-09-09T13:53:40;3.50;;;2.00;;
11767;SDS011;5941;57.652;12.514;2022-09-09T13:56:07;3.83;;;2.40;;
11767;SDS011;5941;57.652;12.514;2022-09-09T13:58:33;2.47;;;1.90;;
11767;SDS011;5941;57.652;12.514;2022-09-09T14:00:59;2.93;;;2.20;;
11767;SDS011;5941;57.652;12.514;2022-09-09T14:03:25;3.90;;;2.50;;
11767;SDS011;5941;57.652;12.514;2022-09-09T14:05:51;2.10;;;1.90;;
11767;SDS011;5941;57.652;12.514;2022-09-09T14:08:20;3.00;;;2.07;;
11767;SDS011;5941;57.652;12.514;2022-09-09T14:10:47;2.67;;;2.03;;
11767;SDS011;5941;57.652;12.514;2022-09-09T14:13:13;2.47;;;2.10;;
11767;SDS011;5941;57.652;12.514;2022-09-09T14:15:40;4.77;;;2.20;;
11767;SDS011;5941;57.652;12.514;2022-09-09T14:18:09;2.60;;;2.03;;
11767;SDS011;5941;57.652;12.514;2022-09-09T14:20:35;2.63;;;2.00;;
11767;SDS011;5941;57.652;12.514;2022-09-09T14:23:01;3.03;;;1.97;;
11767;SDS011;5941;57.652;12.514;2022-09-09T14:25:27;2.90;;;2.00;;
11767;SDS011;5941;57.652;12.514;2022-09-09T14:27:53;1.83;;;1.73;;
11767;SDS011;5941;57.652;12.514;2022-09-09T14:30:21;2.23;;;1.80;;
11767;SDS011;5941;57.652;12.514;2022-09-09T14:32:47;2.03;;;1.80;;
11767;SDS011;5941;57.652;12.514;2022-09-09T14:35:13;2.10;;;1.90;;
11767;SDS011;5941;57.652;12.514;2022-09-09T14:37:39;2.53;;;2.00;;
11767;SDS011;5941;57.652;12.514;2022-09-09T14:40:05;2.90;;;1.80;;
11767;SDS011;5941;57.652;12.514;2022-09-09T14:42:32;2.20;;;2.00;;
11767;SDS011;5941;57.652;12.514;2022-09-09T14:44:58;2.50;;;2.00;;
11767;SDS011;5941;57.652;12.514;2022-09-09T14:47:24;2.20;;;2.00;;
11767;SDS011;5941;57.652;12.514;2022-09-09T14:49:51;2.63;;;1.90;;
11767;SDS011;5941;57.652;12.514;2022-09-09T14:52:17;2.00;;;1.80;;
11767;SDS011;5941;57.652;12.514;2022-09-09T14:54:43;1.77;;;1.67;;
11767;SDS011;5941;57.652;12.514;2022-09-09T14:57:12;1.90;;;1.70;;
11767;SDS011;5941;57.652;12.514;2022-09-09T14:59:38;1.50;;;1.40;;
11767;SDS011;5941;57.652;12.514;2022-09-09T15:02:04;2.53;;;1.60;;
11767;SDS011;5941;57.652;12.514;2022-09-09T15:04:30;1.77;;;1.37;;
11767;SDS011;5941;57.652;12.514;2022-09-09T15:06:57;1.77;;;1.23;;
11767;SDS011;5941;57.652;12.514;2022-09-09T15:09:23;3.13;;;1.40;;
11767;SDS011;5941;57.652;12.514;2022-09-09T15:11:49;1.43;;;1.20;;
11767;SDS011;5941;57.652;12.514;2022-09-09T15:14:15;3.07;;;1.50;;
11767;SDS011;5941;57.652;12.514;2022-09-09T15:16:42;1.40;;;1.30;;
11767;SDS011;5941;57.652;12.514;2022-09-09T15:19:08;1.67;;;1.40;;
11767;SDS011;5941;57.652;12.514;2022-09-09T15:21:35;1.50;;;1.17;;
11767;SDS011;5941;57.652;12.514;2022-09-09T15:24:01;2.53;;;1.40;;
11767;SDS011;5941;57.652;12.514;2022-09-09T15:26:27;1.50;;;1.40;;
11767;SDS011;5941;57.652;12.514;2022-09-09T15:28:55;1.60;;;1.30;;
11767;SDS011;5941;57.652;12.514;2022-09-09T15:31:24;1.50;;;1.10;;
11767;SDS011;5941;57.652;12.514;2022-09-09T15:33:51;2.10;;;1.33;;
11767;SDS011;5941;57.652;12.514;2022-09-09T15:36:19;1.47;;;1.33;;
11767;SDS011;5941;57.652;12.514;2022-09-09T15:38:45;1.83;;;1.27;;
11767;SDS011;5941;57.652;12.514;2022-09-09T15:41:11;1.53;;;1.20;;
11767;SDS011;5941;57.652;12.514;2022-09-09T15:43:37;1.63;;;1.27;;
11767;SDS011;5941;57.652;12.514;2022-09-09T15:48:52;1.70;;;1.30;;
11767;SDS011;5941;57.652;12.514;2022-09-09T15:51:18;1.73;;;1.00;;
11767;SDS011;5941;57.652;12.514;2022-09-09T15:53:44;1.33;;;1.23;;
11767;SDS011;5941;57.652;12.514;2022-09-09T15:56:10;1.80;;;1.30;;
11767;SDS011;5941;57.652;12.514;2022-09-09T15:58:36;1.40;;;1.20;;
11767;SDS011;5941;57.652;12.514;2022-09-09T16:01:03;1.40;;;1.30;;
11767;SDS011;5941;57.652;12.514;2022-09-09T16:03:33;1.40;;;1.30;;
11767;SDS011;5941;57.652;12.514;2022-09-09T16:05:59;1.67;;;1.30;;
11767;SDS011;5941;57.652;12.514;2022-09-09T16:08:31;1.43;;;1.33;;
11767;SDS011;5941;57.652;12.514;2022-09-09T16:11:03;1.30;;;1.20;;
11767;SDS011;5941;57.652;12.514;2022-09-09T16:13:32;2.10;;;1.00;;
11767;SDS011;5941;57.652;12.514;2022-09-09T16:15:58;1.20;;;1.10;;
11767;SDS011;5941;57.652;12.514;2022-09-09T16:18:24;1.20;;;1.10;;
11767;SDS011;5941;57.652;12.514;2022-09-09T16:20:56;1.00;;;1.00;;
11767;SDS011;5941;57.652;12.514;2022-09-09T16:23:22;1.50;;;1.10;;
11767;SDS011;5941;57.652;12.514;2022-09-09T16:25:53;1.30;;;1.20;;
11767;SDS011;5941;57.652;12.514;2022-09-09T16:28:19;1.10;;;0.97;;
11767;SDS011;5941;57.652;12.514;2022-09-09T16:30:44;1.53;;;1.30;;
11767;SDS011;5941;57.652;12.514;2022-09-09T16:33:10;1.07;;;1.00;;
11767;SDS011;5941;57.652;12.514;2022-09-09T16:35:39;1.70;;;1.30;;
11767;SDS011;5941;57.652;12.514;2022-09-09T16:38:05;1.27;;;1.10;;
11767;SDS011;5941;57.652;12.514;2022-09-09T16:40:33;1.30;;;1.20;;
11767;SDS011;5941;57.652;12.514;2022-09-09T16:43:03;1.07;;;1.03;;
11767;SDS011;5941;57.652;12.514;2022-09-09T16:45:29;1.40;;;1.30;;
11767;SDS011;5941;57.652;12.514;2022-09-09T16:47:55;1.10;;;1.00;;
11767;SDS011;5941;57.652;12.514;2022-09-09T16:50:21;1.53;;;1.00;;
11767;SDS011;5941;57.652;12.514;2022-09-09T16:52:47;1.27;;;1.17;;
11767;SDS011;5941;57.652;12.514;2022-09-09T16:55:13;1.53;;;1.10;;
11767;SDS011;5941;57.652;12.514;2022-09-09T16:57:39;2.00;;;1.20;;
11767;SDS011;5941;57.652;12.514;2022-09-09T17:00:06;1.20;;;1.10;;
11767;SDS011;5941;57.652;12.514;2022-09-09T17:02:33;0.97;;;0.97;;